Time;durP1;ratioP1;P1;durP2;ratioP2;P2;SDS_P1;SDS_P2;PMS_P1;PMS_P2;Temp;Humidity;BMP_temperature;BMP_pressure;BME280_temperature;BME280_humidity;BME280_pressure;Samples;Min_cycle;Max_cycle;Signal;HPM_P1;HPM_P2
2021/03/02 00:00:27;;;;;;;42.97;22.95;;;8.70;99.90;;;;;;2081650;28;20045;-70
2021/03/02 00:01:29;;;;;;;43.38;23.42;;;8.70;99.90;;;;;;2086514;28;20520;-69
2021/03/02 00:02:30;;;;;;;47.13;22.98;;;8.80;99.90;;;;;;2091527;28;20113;-69
2021/03/02 00:03:33;;;;;;;46.03;24.08;;;8.80;99.90;;;;;;2094809;28;20507;-69
2021/03/02 00:04:33;;;;;;;42.72;22.88;;;8.80;99.90;;;;;;2095114;28;20017;-69
2021/03/02 00:05:34;;;;;;;39.22;21.50;;;8.80;99.90;;;;;;2087156;28;20064;-69
2021/03/02 00:06:35;;;;;;;42.28;21.83;;;8.80;99.90;;;;;;2086141;28;20075;-69
2021/03/02 00:07:36;;;;;;;46.45;21.70;;;8.80;99.90;;;;;;2078759;28;20109;-69
2021/03/02 00:08:38;;;;;;;40.67;21.95;;;8.80;99.90;;;;;;2078993;28;20668;-69
2021/03/02 00:09:39;;;;;;;44.15;22.60;;;8.80;99.90;;;;;;2086279;28;20079;-69
2021/03/02 00:10:42;;;;;;;42.20;21.77;;;8.80;99.90;;;;;;2082120;28;20503;-69
2021/03/02 00:11:48;;;;;;;44.33;22.75;;;8.80;99.90;;;;;;2079300;28;20517;-69
2021/03/02 00:12:51;;;;;;;45.60;23.05;;;8.80;99.90;;;;;;2079830;28;20045;-71
2021/03/02 00:13:52;;;;;;;42.33;22.67;;;8.80;99.90;;;;;;2074242;28;20026;-69
2021/03/02 00:14:53;;;;;;;42.40;21.67;;;8.80;99.90;;;;;;2081688;28;20037;-69
2021/03/02 00:15:58;;;;;;;43.83;21.37;;;8.80;99.90;;;;;;2081242;28;20509;-69
2021/03/02 00:17:02;;;;;;;42.25;22.23;;;8.80;99.90;;;;;;2081694;28;20291;-70
2021/03/02 00:18:03;;;;;;;44.75;21.98;;;8.90;99.90;;;;;;2073237;28;20382;-69
2021/03/02 00:19:15;;;;;;;42.88;22.15;;;8.80;99.90;;;;;;2079519;28;20034;-69
2021/03/02 00:20:20;;;;;;;42.40;21.35;;;8.80;99.90;;;;;;2081100;28;20084;-69
2021/03/02 00:21:28;;;;;;;39.03;21.35;;;8.80;99.90;;;;;;2081034;28;20045;-69
2021/03/02 00:22:33;;;;;;;40.58;21.15;;;8.80;99.90;;;;;;2081177;28;20104;-69
2021/03/02 00:23:43;;;;;;;41.47;21.08;;;8.80;99.90;;;;;;2081732;28;20022;-69
2021/03/02 00:24:47;;;;;;;44.13;21.75;;;8.90;99.90;;;;;;2081071;28;20018;-70
2021/03/02 00:25:54;;;;;;;41.22;22.15;;;8.90;99.90;;;;;;2076883;28;20060;-69
2021/03/02 00:26:56;;;;;;;38.72;20.90;;;8.80;99.90;;;;;;2080568;28;20461;-69
2021/03/02 00:28:00;;;;;;;39.13;21.63;;;8.80;99.90;;;;;;2078857;28;20351;-70
2021/03/02 00:29:04;;;;;;;38.65;20.90;;;8.70;99.90;;;;;;2080377;28;20030;-70
2021/03/02 00:30:05;;;;;;;47.85;22.95;;;8.70;99.90;;;;;;2073158;28;20040;-70
2021/03/02 00:31:07;;;;;;;37.03;21.02;;;8.80;99.90;;;;;;2080962;28;20025;-69
2021/03/02 00:32:09;;;;;;;38.80;21.85;;;8.80;99.90;;;;;;2080965;28;20029;-70
2021/03/02 00:33:11;;;;;;;37.25;20.85;;;8.90;99.90;;;;;;2080431;28;20028;-69
2021/03/02 00:34:12;;;;;;;;;;;8.90;99.90;;;;;;2079882;28;20017;-69
2021/03/02 00:35:14;;;;;;;39.47;21.08;;;8.90;99.90;;;;;;2078987;28;19909;-69
2021/03/02 00:36:15;;;;;;;40.50;19.92;;;8.90;99.90;;;;;;2072542;28;20032;-69
2021/03/02 00:37:16;;;;;;;37.92;21.42;;;8.90;99.90;;;;;;2080207;28;20018;-69
2021/03/02 00:38:17;;;;;;;42.75;21.42;;;8.90;99.90;;;;;;2087338;28;20024;-69
2021/03/02 00:39:18;;;;;;;43.70;21.92;;;8.90;99.90;;;;;;2080582;28;20025;-69
2021/03/02 00:40:18;;;;;;;43.97;21.02;;;8.90;99.90;;;;;;2076151;28;20029;-69
2021/03/02 00:41:19;;;;;;;43.78;21.20;;;8.90;99.90;;;;;;2076547;28;20017;-69
2021/03/02 00:42:20;;;;;;;37.45;20.08;;;8.90;99.90;;;;;;2080484;28;20129;-69
2021/03/02 00:43:20;;;;;;;42.78;21.00;;;8.90;99.90;;;;;;2092149;28;20732;-69
2021/03/02 00:44:21;;;;;;;42.45;20.88;;;8.80;99.90;;;;;;2090397;28;20113;-69
2021/03/02 00:45:22;;;;;;;39.53;20.83;;;8.80;99.90;;;;;;2080072;28;20045;-69
2021/03/02 00:46:23;;;;;;;40.15;20.75;;;8.80;99.90;;;;;;2081132;28;20025;-69
2021/03/02 00:47:23;;;;;;;37.03;19.92;;;8.80;99.90;;;;;;2080421;28;20024;-69
2021/03/02 00:48:24;;;;;;;37.17;20.80;;;8.90;99.90;;;;;;2080074;28;20026;-69
2021/03/02 00:49:25;;;;;;;39.20;21.25;;;8.80;99.90;;;;;;2080517;28;20113;-69
2021/03/02 00:50:27;;;;;;;42.67;21.05;;;8.80;99.90;;;;;;2080260;28;20025;-69
2021/03/02 00:51:28;;;;;;;35.25;20.80;;;8.80;99.90;;;;;;2080214;28;20024;-70
2021/03/02 00:52:28;;;;;;;46.40;21.17;;;8.80;99.90;;;;;;2080437;28;20737;-69
2021/03/02 00:53:29;;;;;;;37.63;20.88;;;8.80;99.90;;;;;;2080930;28;20084;-70
2021/03/02 00:54:29;;;;;;;38.25;20.60;;;8.80;99.90;;;;;;2076621;28;20037;-70
2021/03/02 00:55:30;;;;;;;40.78;20.35;;;8.80;99.90;;;;;;2077590;28;20029;-69
2021/03/02 00:56:31;;;;;;;37.20;20.45;;;8.80;99.90;;;;;;2079981;28;20040;-69
2021/03/02 00:57:31;;;;;;;38.53;20.33;;;8.80;99.90;;;;;;2084518;28;20029;-69
2021/03/02 00:58:32;;;;;;;43.95;20.98;;;8.80;99.90;;;;;;2085040;28;20021;-69
2021/03/02 00:59:33;;;;;;;40.30;20.88;;;8.80;99.90;;;;;;2080944;28;20026;-69
2021/03/02 01:00:34;;;;;;;38.22;21.23;;;8.80;99.90;;;;;;2085987;28;20086;-69
2021/03/02 01:01:34;;;;;;;42.33;20.65;;;8.80;99.90;;;;;;2081813;28;20056;-70
2021/03/02 01:02:36;;;;;;;38.25;20.40;;;8.70;99.90;;;;;;2083511;28;20017;-69
2021/03/02 01:03:37;;;;;;;40.15;21.05;;;8.70;99.90;;;;;;2079199;28;20029;-69
2021/03/02 01:04:38;;;;;;;37.08;20.02;;;8.80;99.90;;;;;;2087170;28;20120;-69
2021/03/02 01:05:38;;;;;;;39.22;20.15;;;8.80;99.90;;;;;;2088072;28;20017;-70
2021/03/02 01:06:39;;;;;;;37.42;20.73;;;8.80;99.90;;;;;;2088167;28;20048;-69
2021/03/02 01:07:40;;;;;;;37.10;20.00;;;8.80;99.90;;;;;;2078627;28;20025;-69
2021/03/02 01:08:41;;;;;;;44.67;20.77;;;8.80;99.90;;;;;;2080880;28;20103;-69
2021/03/02 01:09:42;;;;;;;41.05;20.38;;;8.80;99.90;;;;;;2073702;28;20018;-69
2021/03/02 01:10:42;;;;;;;32.85;19.33;;;8.80;99.90;;;;;;2076154;28;20025;-69
2021/03/02 01:11:43;;;;;;;35.88;20.02;;;8.80;99.90;;;;;;2080375;28;20025;-69
2021/03/02 01:12:44;;;;;;;36.85;20.23;;;8.80;99.90;;;;;;2079109;28;20025;-69
2021/03/02 01:13:45;;;;;;;38.67;19.60;;;8.80;99.90;;;;;;2078542;28;20029;-69
2021/03/02 01:14:45;;;;;;;37.15;20.55;;;8.80;99.90;;;;;;2079876;28;20026;-69
2021/03/02 01:15:46;;;;;;;39.80;19.75;;;8.80;99.90;;;;;;2080189;28;20018;-69
2021/03/02 01:16:47;;;;;;;41.38;20.45;;;8.80;99.90;;;;;;2081037;28;20022;-69
2021/03/02 01:17:47;;;;;;;38.15;20.08;;;8.80;99.90;;;;;;2080070;28;20018;-69
2021/03/02 01:18:48;;;;;;;35.88;20.35;;;8.90;99.90;;;;;;2080267;28;20542;-69
2021/03/02 01:19:49;;;;;;;34.70;20.15;;;8.90;99.90;;;;;;2076393;28;20111;-69
2021/03/02 01:20:49;;;;;;;37.22;20.05;;;8.90;99.90;;;;;;2077194;28;20075;-69
2021/03/02 01:21:50;;;;;;;38.95;20.63;;;8.90;99.90;;;;;;2072882;28;20681;-69
2021/03/02 01:22:51;;;;;;;38.95;19.92;;;8.90;99.90;;;;;;2072516;28;20524;-69
2021/03/02 01:23:52;;;;;;;39.30;20.85;;;8.80;99.90;;;;;;2072977;28;20034;-69
2021/03/02 01:24:52;;;;;;;37.72;20.70;;;8.80;99.90;;;;;;2077357;28;20064;-69
2021/03/02 01:25:53;;;;;;;41.55;21.08;;;8.80;99.90;;;;;;2079822;28;20065;-70
2021/03/02 01:26:54;;;;;;;41.05;20.63;;;8.80;99.90;;;;;;2080042;28;20452;-70
2021/03/02 01:27:54;;;;;;;40.15;20.52;;;8.80;99.90;;;;;;2073753;28;20063;-69
2021/03/02 01:28:55;;;;;;;38.78;20.05;;;8.80;99.90;;;;;;2078624;28;20049;-69
2021/03/02 01:29:56;;;;;;;34.22;19.42;;;8.80;99.90;;;;;;2078948;28;20036;-69
2021/03/02 01:30:56;;;;;;;36.05;19.60;;;8.80;99.90;;;;;;2075358;28;20650;-69
2021/03/02 01:31:57;;;;;;;39.92;20.38;;;8.80;99.90;;;;;;2081121;28;20881;-69
2021/03/02 01:32:58;;;;;;;40.72;21.17;;;8.90;99.90;;;;;;2075515;28;20022;-69
2021/03/02 01:33:59;;;;;;;40.40;21.05;;;8.90;99.90;;;;;;2072127;28;20435;-69
2021/03/02 01:34:59;;;;;;;37.85;20.42;;;8.90;99.90;;;;;;2072095;28;20022;-69
2021/03/02 01:36:00;;;;;;;37.10;20.33;;;8.80;99.90;;;;;;2077126;28;20609;-69
2021/03/02 01:37:01;;;;;;;34.30;19.20;;;8.90;99.90;;;;;;2080225;28;20061;-69
2021/03/02 01:38:02;;;;;;;35.85;19.77;;;8.90;99.90;;;;;;2075086;28;20056;-69
2021/03/02 01:39:03;;;;;;;39.83;19.73;;;8.90;99.90;;;;;;2072300;28;20022;-69
2021/03/02 01:40:09;;;;;;;37.50;19.88;;;8.90;99.90;;;;;;2071822;28;20026;-69
2021/03/02 01:41:10;;;;;;;34.05;19.42;;;8.80;99.90;;;;;;2072547;28;20034;-69
2021/03/02 01:42:10;;;;;;;36.00;20.83;;;8.80;99.90;;;;;;2080111;28;20501;-69
2021/03/02 01:43:15;;;;;;;37.40;19.60;;;8.90;99.90;;;;;;2080570;28;20493;-69
2021/03/02 01:44:16;;;;;;;35.92;19.15;;;8.80;99.90;;;;;;2079462;28;20021;-69
2021/03/02 01:45:19;;;;;;;41.40;22.23;;;8.80;99.90;;;;;;2072470;28;20401;-70
2021/03/02 01:46:19;;;;;;;36.28;19.45;;;8.80;99.90;;;;;;2075607;28;20473;-69
2021/03/02 01:47:20;;;;;;;41.75;20.00;;;8.80;99.90;;;;;;2080086;28;20071;-69
2021/03/02 01:48:21;;;;;;;35.40;20.23;;;8.80;99.90;;;;;;2080035;28;20014;-69
2021/03/02 01:49:22;;;;;;;34.53;18.15;;;8.80;99.90;;;;;;2079436;28;20067;-69
2021/03/02 01:50:23;;;;;;;37.92;19.35;;;8.80;99.90;;;;;;2080028;28;20032;-69
2021/03/02 01:51:24;;;;;;;37.03;19.17;;;8.90;99.90;;;;;;2078549;28;20022;-70
2021/03/02 01:52:25;;;;;;;37.88;19.60;;;8.90;99.90;;;;;;2080224;28;20041;-70
2021/03/02 01:53:26;;;;;;;36.30;19.15;;;8.90;99.90;;;;;;2077048;28;20093;-71
2021/03/02 01:54:26;;;;;;;33.90;19.77;;;8.90;99.90;;;;;;2080750;28;20440;-70
2021/03/02 01:55:27;;;;;;;37.50;19.85;;;8.90;99.90;;;;;;2071749;28;20532;-70
2021/03/02 01:56:28;;;;;;;35.28;18.52;;;8.90;99.90;;;;;;2071615;28;20026;-70
2021/03/02 01:57:29;;;;;;;34.85;19.08;;;8.90;99.90;;;;;;2072312;28;20097;-69
2021/03/02 01:58:29;;;;;;;36.17;19.08;;;8.90;99.90;;;;;;2077504;28;20030;-69
2021/03/02 01:59:30;;;;;;;38.45;18.88;;;8.90;99.90;;;;;;2080887;28;20454;-70
2021/03/02 02:00:33;;;;;;;33.80;18.77;;;8.90;99.90;;;;;;2075208;28;20046;-70
2021/03/02 02:01:35;;;;;;;38.10;18.50;;;8.90;99.90;;;;;;2072142;28;20413;-70
2021/03/02 02:03:12;;;;;;;33.33;18.13;;;8.90;99.90;;;;;;2080075;28;20052;-70
2021/03/02 02:04:26;;;;;;;38.88;19.05;;;8.90;99.90;;;;;;2087622;28;20029;-70
2021/03/02 02:05:31;;;;;;;37.72;19.60;;;8.80;99.90;;;;;;2078753;28;20083;-69
2021/03/02 02:06:36;;;;;;;33.78;19.02;;;8.80;99.90;;;;;;2079406;28;20104;-70
2021/03/02 02:07:42;;;;;;;35.03;17.88;;;8.80;99.90;;;;;;2072498;28;20048;-70
2021/03/02 02:08:54;;;;;;;31.58;18.70;;;8.80;99.90;;;;;;2072695;28;20681;-70
2021/03/02 02:10:07;;;;;;;;;;;8.80;99.90;;;;;;2080458;28;20404;-69
2021/03/02 02:11:33;;;;;;;40.10;18.95;;;8.80;99.90;;;;;;2076986;28;20502;-69
2021/03/02 02:12:41;;;;;;;41.03;19.15;;;8.70;99.90;;;;;;2081580;28;20643;-69
2021/03/02 02:13:49;;;;;;;35.03;18.20;;;8.70;99.90;;;;;;2078344;28;20049;-69
2021/03/02 02:14:58;;;;;;;43.65;19.25;;;8.70;99.90;;;;;;2067274;28;20403;-69
2021/03/02 02:16:04;;;;;;;36.40;19.05;;;8.70;99.90;;;;;;2080858;28;20045;-69
2021/03/02 02:17:09;;;;;;;35.63;19.27;;;8.60;99.90;;;;;;2086486;28;20032;-70
2021/03/02 02:18:13;;;;;;;35.10;18.45;;;8.60;99.90;;;;;;2072349;28;20029;-69
2021/03/02 02:19:42;;;;;;;31.13;18.13;;;8.50;99.90;;;;;;2073993;28;20909;-69
2021/03/02 02:21:06;;;;;;;37.95;19.48;;;8.30;99.90;;;;;;2071608;28;20026;-70
2021/03/02 02:22:20;;;;;;;33.95;19.00;;;8.10;99.90;;;;;;2074718;28;20556;-70
2021/03/02 02:23:32;;;;;;;37.63;19.73;;;7.90;99.90;;;;;;2072658;28;20014;-70
2021/03/02 02:24:43;;;;;;;;;;;7.80;99.90;;;;;;2078673;28;20026;-70
2021/03/02 02:25:56;;;;;;;35.08;19.50;;;7.60;99.90;;;;;;2080339;28;19995;-70
2021/03/02 02:26:59;;;;;;;37.28;20.40;;;7.40;99.90;;;;;;2080615;28;20516;-69
2021/03/02 02:28:01;;;;;;;33.70;19.75;;;7.30;99.90;;;;;;2074352;28;20026;-69
2021/03/02 02:29:02;;;;;;;;;;;7.30;99.90;;;;;;2076498;28;20573;-69
2021/03/02 02:30:04;;;;;;;42.25;20.50;;;7.10;99.90;;;;;;2079932;28;19975;-70
2021/03/02 02:31:07;;;;;;;36.78;19.98;;;7.00;99.90;;;;;;2079756;28;20029;-69
2021/03/02 02:32:09;;;;;;;38.70;20.08;;;6.90;99.90;;;;;;2080030;28;20449;-69
2021/03/02 02:33:12;;;;;;;38.95;20.17;;;6.80;99.90;;;;;;2074273;28;20021;-70
2021/03/02 02:34:17;;;;;;;39.00;21.05;;;6.70;99.90;;;;;;2078600;28;20578;-70
2021/03/02 02:35:21;;;;;;;39.10;20.83;;;6.60;99.90;;;;;;2072524;28;20051;-69
2021/03/02 02:36:23;;;;;;;36.70;20.65;;;6.50;99.90;;;;;;2077022;28;20025;-69
2021/03/02 02:37:29;;;;;;;34.58;21.08;;;6.40;99.90;;;;;;2080636;28;20459;-69
2021/03/02 02:38:31;;;;;;;41.00;21.13;;;6.30;99.90;;;;;;2072416;28;20030;-70
2021/03/02 02:39:35;;;;;;;40.05;20.83;;;6.30;99.90;;;;;;2072517;28;20025;-70
2021/03/02 02:40:38;;;;;;;38.13;20.98;;;6.10;99.90;;;;;;2072251;28;20022;-70
2021/03/02 02:41:40;;;;;;;41.75;19.95;;;6.00;99.90;;;;;;2074253;28;20037;-69
2021/03/02 02:42:44;;;;;;;43.40;20.98;;;6.00;99.90;;;;;;2072778;28;20030;-69
2021/03/02 02:43:47;;;;;;;36.42;21.80;;;5.90;99.90;;;;;;2078735;28;20034;-70
2021/03/02 02:44:49;;;;;;;39.78;21.15;;;5.90;99.90;;;;;;2075262;28;20021;-70
2021/03/02 02:45:51;;;;;;;40.55;20.70;;;5.90;99.90;;;;;;2076928;28;20072;-70
2021/03/02 02:46:54;;;;;;;37.60;19.80;;;5.80;99.90;;;;;;2075868;28;20022;-70
2021/03/02 02:47:56;;;;;;;35.38;20.58;;;5.70;99.90;;;;;;2074655;28;20109;-70
2021/03/02 02:48:57;;;;;;;;;;;5.70;99.90;;;;;;2089191;28;20040;-69
2021/03/02 02:49:58;;;;;;;38.63;20.48;;;5.60;99.90;;;;;;2078316;28;19906;-70
2021/03/02 02:50:59;;;;;;;44.20;20.83;;;5.60;99.90;;;;;;2071540;28;20034;-69
2021/03/02 02:52:00;;;;;;;38.80;21.47;;;5.50;99.90;;;;;;2071461;28;20678;-69
2021/03/02 02:53:02;;;;;;;37.78;21.33;;;5.40;99.90;;;;;;2071508;28;20320;-69
2021/03/02 02:54:04;;;;;;;41.03;20.65;;;5.40;99.90;;;;;;2080498;28;20021;-70
2021/03/02 02:55:06;;;;;;;38.70;20.30;;;5.40;99.90;;;;;;2073215;28;20083;-70
2021/03/02 02:56:09;;;;;;;;;;;5.30;99.90;;;;;;2072608;28;20026;-70
2021/03/02 02:57:12;;;;;;;37.15;20.33;;;5.30;99.90;;;;;;2072314;28;19921;-70
2021/03/02 02:58:18;;;;;;;39.95;20.92;;;5.20;99.90;;;;;;2071739;28;20656;-70
2021/03/02 02:59:26;;;;;;;40.55;21.05;;;5.20;99.90;;;;;;2079525;28;20740;-69
2021/03/02 03:00:27;;;;;;;42.40;21.95;;;5.20;99.90;;;;;;2078550;28;20025;-69
2021/03/02 03:01:37;;;;;;;38.75;21.38;;;5.10;99.90;;;;;;2070986;28;20050;-69
2021/03/02 03:02:43;;;;;;;39.45;21.02;;;5.00;99.90;;;;;;2071494;28;20077;-69
2021/03/02 03:03:47;;;;;;;39.03;21.17;;;5.00;99.90;;;;;;2081035;28;20552;-69
2021/03/02 03:04:53;;;;;;;43.08;22.23;;;4.90;99.90;;;;;;2069977;28;20444;-70
2021/03/02 03:05:59;;;;;;;40.17;21.42;;;4.90;99.90;;;;;;2078409;28;20026;-70
2021/03/02 03:07:04;;;;;;;42.90;20.80;;;4.80;99.90;;;;;;2077735;28;20060;-70
2021/03/02 03:08:19;;;;;;;39.22;21.80;;;4.80;99.90;;;;;;2072166;28;20076;-69
2021/03/02 03:09:22;;;;;;;39.10;20.63;;;4.80;99.90;;;;;;2078965;28;20013;-69
2021/03/02 03:10:26;;;;;;;36.40;20.80;;;4.70;99.90;;;;;;2074137;28;20026;-70
2021/03/02 03:11:32;;;;;;;40.38;21.88;;;4.70;99.90;;;;;;2080307;28;20063;-70
2021/03/02 03:12:39;;;;;;;38.58;21.27;;;4.60;99.90;;;;;;2074924;28;20109;-69
2021/03/02 03:13:43;;;;;;;41.83;22.30;;;4.60;99.90;;;;;;2072020;28;20041;-69
2021/03/02 03:14:59;;;;;;;42.67;21.25;;;4.60;99.90;;;;;;2079485;28;20552;-69
2021/03/02 03:16:04;;;;;;;41.05;20.98;;;4.50;99.90;;;;;;2077491;28;20059;-69
2021/03/02 03:17:07;;;;;;;42.83;21.20;;;4.50;99.90;;;;;;2078895;28;20022;-69
2021/03/02 03:18:09;;;;;;;40.70;21.08;;;4.50;99.90;;;;;;2071917;28;20018;-69
2021/03/02 03:19:25;;;;;;;39.13;20.85;;;4.50;99.90;;;;;;2071817;28;20014;-69
2021/03/02 03:20:26;;;;;;;42.65;21.73;;;4.40;99.90;;;;;;2072147;28;20022;-70
2021/03/02 03:21:28;;;;;;;41.38;21.85;;;4.40;99.90;;;;;;2071712;28;20065;-70
2021/03/02 03:22:32;;;;;;;40.35;22.00;;;4.40;99.90;;;;;;2071745;28;20018;-69
2021/03/02 03:23:35;;;;;;;35.42;21.42;;;4.40;99.90;;;;;;2072004;28;20037;-70
2021/03/02 03:24:36;;;;;;;38.38;20.98;;;4.30;99.90;;;;;;2071206;28;20029;-70
2021/03/02 03:25:37;;;;;;;33.83;19.65;;;4.40;99.90;;;;;;2076530;28;20060;-69
2021/03/02 03:26:39;;;;;;;40.15;20.88;;;4.30;99.90;;;;;;2076172;28;20080;-69
2021/03/02 03:27:44;;;;;;;39.90;21.90;;;4.30;99.90;;;;;;2070892;28;20025;-69
2021/03/02 03:28:47;;;;;;;37.28;20.65;;;4.40;99.90;;;;;;2063411;28;20037;-70
2021/03/02 03:29:48;;;;;;;39.60;21.50;;;4.30;99.90;;;;;;2076166;28;20025;-70
2021/03/02 03:30:49;;;;;;;39.90;20.15;;;4.30;99.90;;;;;;2071065;28;20675;-69
2021/03/02 03:31:51;;;;;;;46.47;22.50;;;4.30;99.90;;;;;;2072025;28;20122;-69
2021/03/02 03:32:58;;;;;;;41.88;21.98;;;4.20;99.90;;;;;;2071644;28;20033;-69
2021/03/02 03:34:00;;;;;;;44.03;22.08;;;4.10;99.90;;;;;;2071952;28;20037;-69
2021/03/02 03:35:02;;;;;;;40.15;21.77;;;4.10;99.90;;;;;;2070624;28;20033;-69
2021/03/02 03:36:04;;;;;;;42.53;22.17;;;4.10;99.90;;;;;;2071253;28;20476;-69
2021/03/02 03:37:05;;;;;;;40.05;20.45;;;4.10;99.90;;;;;;2071422;28;20639;-69
2021/03/02 03:38:05;;;;;;;43.75;21.55;;;4.10;99.90;;;;;;2077572;28;20124;-69
2021/03/02 03:39:06;;;;;;;35.85;20.80;;;4.00;99.90;;;;;;2079293;28;20084;-70
2021/03/02 03:40:08;;;;;;;39.72;20.60;;;4.00;99.90;;;;;;2070550;28;20741;-69
2021/03/02 03:41:09;;;;;;;42.88;21.48;;;4.00;99.90;;;;;;2070548;28;20171;-69
2021/03/02 03:42:09;;;;;;;38.25;20.80;;;3.90;99.90;;;;;;2079432;28;20055;-69
2021/03/02 03:43:10;;;;;;;40.22;22.50;;;3.90;99.90;;;;;;2071625;28;20628;-69
2021/03/02 03:44:11;;;;;;;43.22;22.20;;;3.90;99.90;;;;;;2071844;28;20030;-69
2021/03/02 03:45:12;;;;;;;42.38;21.60;;;3.90;99.90;;;;;;2070553;28;20537;-69
2021/03/02 03:46:13;;;;;;;37.63;21.15;;;3.80;99.90;;;;;;2070784;28;20030;-73
2021/03/02 03:47:13;;;;;;;41.78;21.48;;;3.80;99.90;;;;;;2078108;28;20080;-69
2021/03/02 03:48:14;;;;;;;39.28;21.52;;;3.90;99.90;;;;;;2071166;28;20050;-69
2021/03/02 03:49:15;;;;;;;45.70;22.98;;;3.80;99.90;;;;;;2072999;28;20026;-70
2021/03/02 03:50:16;;;;;;;41.90;21.10;;;3.80;99.90;;;;;;2079948;28;20018;-69
2021/03/02 03:51:17;;;;;;;44.22;21.48;;;3.80;99.90;;;;;;2079275;28;20018;-69
2021/03/02 03:52:18;;;;;;;41.72;22.27;;;3.80;99.90;;;;;;2089950;28;20071;-69
2021/03/02 03:53:21;;;;;;;39.80;21.08;;;3.80;99.90;;;;;;2084132;28;20018;-69
2021/03/02 03:54:22;;;;;;;;;;;3.80;99.90;;;;;;2072204;28;20038;-69
2021/03/02 03:55:27;;;;;;;44.95;21.15;;;3.80;99.90;;;;;;2079831;28;20000;-68
2021/03/02 03:56:28;;;;;;;39.90;20.85;;;3.80;99.90;;;;;;2078504;28;20029;-69
2021/03/02 03:57:30;;;;;;;41.53;21.55;;;3.80;99.90;;;;;;2073316;28;20022;-69
2021/03/02 03:58:32;;;;;;;45.88;21.70;;;3.90;99.90;;;;;;2077809;28;20022;-69
2021/03/02 03:59:33;;;;;;;47.05;21.55;;;3.90;99.90;;;;;;2081024;28;20030;-69
2021/03/02 04:00:34;;;;;;;39.92;21.88;;;3.90;99.90;;;;;;2080597;28;20029;-69
2021/03/02 04:01:35;;;;;;;44.08;20.95;;;3.80;99.90;;;;;;2077434;28;20889;-68
2021/03/02 04:02:38;;;;;;;43.58;20.90;;;3.80;99.90;;;;;;2080723;28;20021;-69
2021/03/02 04:03:40;;;;;;;38.95;21.10;;;3.70;99.90;;;;;;2080832;28;20676;-69
2021/03/02 04:04:41;;;;;;;;;;;3.70;99.90;;;;;;2089321;28;20479;-68
2021/03/02 04:05:43;;;;;;;40.58;20.85;;;3.60;99.90;;;;;;2086795;28;19905;-69
2021/03/02 04:06:44;;;;;;;42.85;21.67;;;3.60;99.90;;;;;;2087902;28;20032;-69
2021/03/02 04:07:46;;;;;;;38.35;21.50;;;3.60;99.90;;;;;;2075039;28;20037;-70
2021/03/02 04:08:48;;;;;;;40.85;21.70;;;3.60;99.90;;;;;;2072864;28;20505;-68
2021/03/02 04:09:49;;;;;;;40.17;21.60;;;3.60;99.90;;;;;;2073491;28;20022;-69
2021/03/02 04:10:50;;;;;;;39.40;21.63;;;3.60;99.90;;;;;;2075973;28;20103;-69
2021/03/02 04:11:50;;;;;;;41.38;21.73;;;3.60;99.90;;;;;;2081401;28;20742;-69
2021/03/02 04:12:51;;;;;;;47.70;22.88;;;3.60;99.90;;;;;;2073557;28;20049;-69
2021/03/02 04:13:55;;;;;;;43.30;22.67;;;3.60;99.90;;;;;;2074398;28;20026;-69
2021/03/02 04:14:56;;;;;;;46.65;21.58;;;3.60;99.90;;;;;;2075103;28;20032;-69
2021/03/02 04:16:00;;;;;;;44.38;21.45;;;3.60;99.90;;;;;;2079799;28;20029;-69
2021/03/02 04:17:02;;;;;;;38.22;21.25;;;3.60;99.90;;;;;;2072498;28;20061;-69
2021/03/02 04:18:03;;;;;;;37.70;21.27;;;3.60;99.90;;;;;;2072238;28;20014;-69
2021/03/02 04:19:05;;;;;;;43.75;21.98;;;3.60;99.90;;;;;;2074669;28;20490;-68
2021/03/02 04:20:07;;;;;;;48.50;23.25;;;3.60;99.90;;;;;;2080523;28;20032;-70
2021/03/02 04:21:07;;;;;;;47.95;22.27;;;3.50;99.90;;;;;;2080245;28;20025;-69
2021/03/02 04:22:08;;;;;;;43.83;22.88;;;3.50;99.90;;;;;;2079152;28;20029;-69
2021/03/02 04:23:10;;;;;;;46.13;21.83;;;3.50;99.90;;;;;;2080168;28;20029;-69
2021/03/02 04:24:10;;;;;;;40.13;21.38;;;3.40;99.90;;;;;;2080377;28;20036;-69
2021/03/02 04:25:12;;;;;;;40.47;22.05;;;3.40;99.90;;;;;;2081368;28;20201;-70
2021/03/02 04:26:13;;;;;;;42.75;22.70;;;3.40;99.90;;;;;;2081277;28;20049;-69
2021/03/02 04:27:14;;;;;;;46.00;22.98;;;3.30;99.90;;;;;;2081354;28;20033;-69
2021/03/02 04:28:14;;;;;;;41.42;23.17;;;3.30;99.90;;;;;;2072296;28;20538;-69
2021/03/02 04:29:15;;;;;;;43.20;21.60;;;3.20;99.90;;;;;;2072283;28;20493;-68
2021/03/02 04:30:16;;;;;;;47.17;22.20;;;3.20;99.90;;;;;;2080857;28;20025;-69
2021/03/02 04:31:17;;;;;;;42.78;21.42;;;3.20;99.90;;;;;;2083032;28;20581;-69
2021/03/02 04:32:17;;;;;;;42.05;22.23;;;3.20;99.90;;;;;;2074729;28;20025;-69
2021/03/02 04:33:18;;;;;;;49.55;22.83;;;3.20;99.90;;;;;;2080189;28;20140;-69
2021/03/02 04:34:19;;;;;;;36.28;21.85;;;3.10;99.90;;;;;;2078910;28;20032;-69
2021/03/02 04:35:20;;;;;;;40.58;21.73;;;3.10;99.90;;;;;;2075370;28;20094;-69
2021/03/02 04:36:21;;;;;;;45.08;23.20;;;3.10;99.90;;;;;;2071883;28;20028;-69
2021/03/02 04:37:22;;;;;;;47.03;22.63;;;3.00;99.90;;;;;;2079164;28;20032;-69
2021/03/02 04:38:22;;;;;;;46.92;22.92;;;3.10;99.90;;;;;;2080121;28;20049;-69
2021/03/02 04:39:23;;;;;;;48.83;23.17;;;3.00;99.90;;;;;;2076641;28;20048;-69
2021/03/02 04:40:24;;;;;;;43.53;22.83;;;3.00;99.90;;;;;;2073775;28;20431;-69
2021/03/02 04:41:24;;;;;;;41.42;21.83;;;3.00;99.90;;;;;;2084670;28;20687;-69
2021/03/02 04:42:25;;;;;;;48.95;21.95;;;3.00;99.90;;;;;;2088532;28;20037;-69
2021/03/02 04:43:25;;;;;;;45.53;23.90;;;3.00;99.90;;;;;;2077133;28;20022;-68
2021/03/02 04:44:26;;;;;;;40.53;20.95;;;2.90;99.90;;;;;;2077339;28;20029;-69
2021/03/02 04:45:27;;;;;;;44.72;22.35;;;2.90;99.90;;;;;;2072519;28;20044;-69
2021/03/02 04:46:28;;;;;;;39.13;21.63;;;2.90;99.90;;;;;;2072582;28;20033;-68
2021/03/02 04:47:28;;;;;;;44.72;22.75;;;2.90;99.90;;;;;;2072968;28;20018;-69
2021/03/02 04:48:29;;;;;;;41.25;21.83;;;2.90;99.90;;;;;;2074036;28;20025;-69
2021/03/02 04:49:29;;;;;;;38.60;20.95;;;2.90;99.90;;;;;;2080574;28;20071;-69
2021/03/02 04:50:30;;;;;;;42.92;22.50;;;2.80;99.90;;;;;;2076636;28;20026;-69
2021/03/02 04:51:31;;;;;;;46.83;22.50;;;2.90;99.90;;;;;;2072450;28;20086;-69
2021/03/02 04:52:32;;;;;;;45.17;23.15;;;2.90;99.90;;;;;;2072532;28;20081;-68
2021/03/02 04:53:33;;;;;;;38.03;21.02;;;2.80;99.90;;;;;;2075239;28;20489;-69
2021/03/02 04:54:34;;;;;;;46.33;20.77;;;2.80;99.90;;;;;;2073022;28;20022;-69
2021/03/02 04:55:35;;;;;;;40.15;21.73;;;2.80;99.90;;;;;;2080410;28;20264;-69
2021/03/02 04:56:35;;;;;;;41.78;21.80;;;2.80;99.90;;;;;;2078461;28;20030;-69
2021/03/02 04:57:36;;;;;;;46.00;22.83;;;2.70;99.90;;;;;;2064006;28;20034;-69
2021/03/02 04:58:37;;;;;;;49.45;22.25;;;2.70;99.90;;;;;;2071762;28;20065;-69
2021/03/02 04:59:38;;;;;;;44.50;22.05;;;2.70;99.90;;;;;;2073420;28;20482;-69
2021/03/02 05:00:38;;;;;;;46.78;23.67;;;2.70;99.90;;;;;;2080971;28;20661;-69
2021/03/02 05:01:39;;;;;;;45.08;22.40;;;2.70;99.90;;;;;;2076134;28;20046;-69
2021/03/02 05:02:40;;;;;;;40.45;22.17;;;2.70;99.90;;;;;;2072111;28;20081;-69
2021/03/02 05:03:40;;;;;;;39.85;21.83;;;2.70;99.90;;;;;;2081437;28;20033;-69
2021/03/02 05:04:41;;;;;;;41.90;22.23;;;2.70;99.90;;;;;;2084556;28;20025;-69
2021/03/02 05:05:42;;;;;;;45.63;22.25;;;2.70;99.90;;;;;;2072026;28;20574;-69
2021/03/02 05:06:42;;;;;;;46.40;22.15;;;2.60;99.90;;;;;;2070642;28;20019;-69
2021/03/02 05:07:43;;;;;;;46.00;21.85;;;2.60;99.90;;;;;;2072021;28;20022;-69
2021/03/02 05:08:43;;;;;;;41.15;22.10;;;2.60;99.90;;;;;;2065269;28;20033;-68
2021/03/02 05:09:44;;;;;;;46.97;22.33;;;2.60;99.90;;;;;;2071989;28;20075;-68
2021/03/02 05:10:45;;;;;;;48.35;22.15;;;2.60;99.90;;;;;;2071704;28;20026;-69
2021/03/02 05:11:46;;;;;;;46.00;22.83;;;2.60;99.90;;;;;;2080473;28;20021;-68
2021/03/02 05:12:46;;;;;;;48.17;21.58;;;2.70;99.90;;;;;;2072972;28;20026;-68
2021/03/02 05:13:47;;;;;;;41.67;22.65;;;2.70;99.90;;;;;;2072214;28;20037;-69
2021/03/02 05:14:48;;;;;;;37.85;21.30;;;2.70;99.90;;;;;;2074536;28;20029;-69
2021/03/02 05:15:48;;;;;;;49.10;22.80;;;2.70;99.90;;;;;;2080875;28;20477;-69
2021/03/02 05:16:50;;;;;;;38.60;22.48;;;2.70;99.90;;;;;;2081056;28;20029;-68
2021/03/02 05:17:50;;;;;;;48.88;22.52;;;2.70;99.90;;;;;;2074563;28;20021;-69
2021/03/02 05:18:51;;;;;;;43.40;22.40;;;2.60;99.90;;;;;;2073164;28;20465;-69
2021/03/02 05:19:52;;;;;;;44.78;22.95;;;2.60;99.90;;;;;;2073794;28;20033;-69
2021/03/02 05:20:52;;;;;;;42.13;21.90;;;2.60;99.90;;;;;;2072339;28;20026;-68
2021/03/02 05:21:53;;;;;;;44.58;22.50;;;2.60;99.90;;;;;;2079501;28;20125;-69
2021/03/02 05:22:54;;;;;;;50.15;21.88;;;2.60;99.90;;;;;;2072557;28;20393;-69